Sherman, Wisconsin
Current Conditions -  °F | °C
As of 12:15 PM on Friday 24 Oct 2014 (Local Time) from KPBH Reporting Station
Clear Clear  
Wind Chill: 54°   Ceiling: Unl
Heat Index: 54°   Visibility: 10mi
Dew Point: 48°   Wind: 7mph
Humidity: 80%   Direction: 160°SSE
Pressure: 29.91"   Gusts: NA
Location:  45.9599°N, 90.2362°W
Report Text: KPBH 241715Z AUTO 16006KT 10SM CLR 12/09 A2991 RMK AO2 T01220089
Loading
Personal Weather Stations






























Interactive Weather Map New forecast layout! Learn more

10-Day Weather Forecast

Advertisements
Track Severe Weather on mobile